createdAt,value
2018-02-09T00:01:21.372Z,18.57
2018-02-09T00:03:49.954Z,16.67
2018-02-09T00:06:17.556Z,17.07
2018-02-09T00:08:45.130Z,13.23
2018-02-09T00:11:12.763Z,15.90
2018-02-09T00:13:40.376Z,15.70
2018-02-09T00:16:07.955Z,13.83
2018-02-09T00:18:35.836Z,16.30
2018-02-09T00:21:03.426Z,12.37
2018-02-09T00:23:31.040Z,17.03
2018-02-09T00:25:58.681Z,13.43
2018-02-09T00:28:26.248Z,14.90
2018-02-09T00:30:53.824Z,13.83
2018-02-09T00:33:21.476Z,14.83
2018-02-09T00:35:49.118Z,14.57
2018-02-09T00:38:16.720Z,15.17
2018-02-09T00:40:44.320Z,15.10
2018-02-09T00:43:12.402Z,15.77
2018-02-09T00:45:39.986Z,16.57
2018-02-09T00:48:07.697Z,16.07
2018-02-09T00:50:38.867Z,13.10
2018-02-09T00:53:06.424Z,15.57
2018-02-09T00:55:34.240Z,14.17
2018-02-09T00:58:01.797Z,12.37
2018-02-09T01:00:29.398Z,17.07
2018-02-09T01:02:59.783Z,15.33
2018-02-09T01:05:27.449Z,16.27
2018-02-09T01:07:55.058Z,15.67
2018-02-09T01:10:22.747Z,14.87
2018-02-09T01:12:50.398Z,14.20
2018-02-09T01:15:17.965Z,15.43
2018-02-09T01:17:45.589Z,15.30
2018-02-09T01:20:13.157Z,17.23
2018-02-09T01:22:40.795Z,16.07
2018-02-09T01:25:08.428Z,18.37
2018-02-09T01:27:36.065Z,20.60
2018-02-09T01:30:03.694Z,17.40
2018-02-09T01:32:31.344Z,13.00
2018-02-09T01:34:58.917Z,16.97
2018-02-09T01:37:26.505Z,14.13
2018-02-09T01:39:54.126Z,11.77
2018-02-09T01:42:22.595Z,14.43
2018-02-09T01:44:49.636Z,13.27
2018-02-09T01:47:17.271Z,10.77
2018-02-09T01:49:44.895Z,10.00
2018-02-09T01:52:12.451Z,7.73
2018-02-09T01:54:40.060Z,8.20
2018-02-09T01:57:07.657Z,6.67
2018-02-09T01:59:35.222Z,6.87
2018-02-09T02:02:02.837Z,6.53
2018-02-09T02:04:30.428Z,5.70
2018-02-09T02:06:58.013Z,6.77
2018-02-09T02:09:25.901Z,5.70
2018-02-09T02:11:53.477Z,7.13
2018-02-09T02:14:21.053Z,6.90
2018-02-09T02:16:48.697Z,8.47
2018-02-09T02:19:16.295Z,8.53
2018-02-09T02:21:43.906Z,11.70
2018-02-09T02:24:12.080Z,12.43
2018-02-09T02:26:39.644Z,11.03
2018-02-09T02:29:07.248Z,11.77
2018-02-09T02:31:34.857Z,11.47
2018-02-09T02:34:02.445Z,12.40
2018-02-09T02:36:30.026Z,12.57
2018-02-09T02:38:57.706Z,11.73
2018-02-09T02:41:25.259Z,10.37
2018-02-09T02:43:52.849Z,10.50
2018-02-09T02:46:21.160Z,5.57
2018-02-09T02:48:48.719Z,6.03
2018-02-09T02:51:16.276Z,5.13
2018-02-09T02:53:43.920Z,4.43
2018-02-09T02:56:11.489Z,4.10
2018-02-09T02:58:39.087Z,2.87
2018-02-09T03:01:06.711Z,3.57
2018-02-09T03:03:34.301Z,4.50
2018-02-09T03:06:01.938Z,3.37
2018-02-09T03:08:29.550Z,2.87
2018-02-09T03:10:57.112Z,4.27
2018-02-09T03:13:24.666Z,4.43
2018-02-09T03:15:52.305Z,3.77
2018-02-09T03:18:19.864Z,3.07
2018-02-09T03:20:47.437Z,3.10
2018-02-09T03:23:15.268Z,4.30
2018-02-09T03:25:42.899Z,3.23
2018-02-09T03:28:10.496Z,3.30
2018-02-09T03:30:38.112Z,3.73
2018-02-09T03:33:05.691Z,2.50
2018-02-09T03:35:33.324Z,5.07
2018-02-09T03:38:00.931Z,3.03
2018-02-09T03:40:28.506Z,4.17
2018-02-09T03:42:56.084Z,5.40
2018-02-09T03:45:23.698Z,5.77
2018-02-09T03:47:51.605Z,5.47
2018-02-09T03:50:19.204Z,4.60
2018-02-09T03:52:46.807Z,4.83
2018-02-09T03:55:14.429Z,6.23
2018-02-09T03:57:41.975Z,8.63
2018-02-09T04:00:09.827Z,5.27
2018-02-09T04:02:37.468Z,6.73
2018-02-09T04:05:05.054Z,5.53
2018-02-09T04:07:32.687Z,6.53
2018-02-09T04:10:00.250Z,8.43
2018-02-09T04:12:28.314Z,8.80
2018-02-09T04:14:55.944Z,5.80
2018-02-09T04:17:23.502Z,5.47
2018-02-09T04:19:51.060Z,5.70
2018-02-09T04:22:18.741Z,6.30
2018-02-09T04:24:46.306Z,5.83
2018-02-09T04:27:13.968Z,7.17
2018-02-09T04:29:41.645Z,6.90
2018-02-09T04:32:09.199Z,4.97
2018-02-09T04:34:36.773Z,7.77
2018-02-09T04:37:05.173Z,9.37
2018-02-09T04:39:32.757Z,7.50
2018-02-09T04:42:00.437Z,8.33
2018-02-09T04:44:28.339Z,7.60
2018-02-09T04:46:55.903Z,5.10
2018-02-09T04:49:23.511Z,7.83
2018-02-09T04:51:51.165Z,7.57
2018-02-09T04:54:18.720Z,11.37
2018-02-09T04:56:46.300Z,11.13
2018-02-09T04:59:13.925Z,10.33
2018-02-09T05:01:41.530Z,14.87
2018-02-09T05:04:09.110Z,11.23
2018-02-09T05:06:37.392Z,8.43
2018-02-09T05:09:05.099Z,11.53
2018-02-09T05:11:32.677Z,9.60
2018-02-09T05:14:00.299Z,10.97
2018-02-09T05:16:27.852Z,8.40
2018-02-09T05:18:55.431Z,6.10
2018-02-09T05:21:23.134Z,8.93
2018-02-09T05:23:50.700Z,10.63
2018-02-09T05:26:18.267Z,15.37
2018-02-09T05:28:45.884Z,10.27
2018-02-09T05:31:13.682Z,8.57
2018-02-09T05:33:41.260Z,15.13
2018-02-09T05:36:08.898Z,19.80
2018-02-09T05:38:36.464Z,30.23
2018-02-09T05:41:04.040Z,27.23
2018-02-09T05:43:31.686Z,28.07
2018-02-09T05:46:00.340Z,27.43
2018-02-09T05:48:27.942Z,30.50
2018-02-09T05:50:56.021Z,32.57
2018-02-09T05:53:23.730Z,27.47
2018-02-09T05:55:51.324Z,27.17
2018-02-09T05:58:19.008Z,25.07
2018-02-09T06:00:46.584Z,27.80
2018-02-09T06:03:14.149Z,26.23
2018-02-09T06:05:41.786Z,29.80
2018-02-09T06:08:09.435Z,30.67
2018-02-09T06:10:37.027Z,38.10
2018-02-09T06:13:04.818Z,46.33
2018-02-09T06:15:32.765Z,35.13
2018-02-09T06:18:00.423Z,39.87
2018-02-09T06:20:28.126Z,31.83
2018-02-09T06:22:55.712Z,35.73
2018-02-09T06:25:24.810Z,42.33
2018-02-09T06:27:52.502Z,43.47
2018-02-09T06:30:20.313Z,44.80
2018-02-09T06:32:48.114Z,41.60
2018-02-09T06:35:17.758Z,36.23
2018-02-09T06:37:45.431Z,29.30
2018-02-09T06:40:13.198Z,27.50
2018-02-09T06:42:40.971Z,29.73
2018-02-09T06:45:09.483Z,35.63
2018-02-09T06:47:37.129Z,34.10
2018-02-09T06:50:04.761Z,30.10
2018-02-09T06:52:32.459Z,33.60
2018-02-09T06:55:00.035Z,26.53
2018-02-09T06:57:27.907Z,23.40
2018-02-09T06:59:57.765Z,30.80
2018-02-09T07:02:25.332Z,28.47
2018-02-09T07:04:52.964Z,30.73
2018-02-09T07:07:20.531Z,26.97
2018-02-09T07:09:48.120Z,31.70
2018-02-09T07:12:15.788Z,33.60
2018-02-09T07:14:43.429Z,32.73
2018-02-09T07:17:11.077Z,30.50
2018-02-09T07:19:38.806Z,30.80
2018-02-09T07:22:06.627Z,33.20
2018-02-09T07:24:34.294Z,33.40
2018-02-09T07:27:02.429Z,25.30
2018-02-09T07:29:30.013Z,29.20
2018-02-09T07:31:57.601Z,28.97
2018-02-09T07:34:25.365Z,25.80
2018-02-09T07:36:52.941Z,22.23
2018-02-09T07:39:20.532Z,18.47
2018-02-09T07:41:48.222Z,27.23
2018-02-09T07:44:15.846Z,16.03
2018-02-09T07:46:44.180Z,13.33
2018-02-09T07:49:11.816Z,12.60
2018-02-09T07:51:39.497Z,8.03
2018-02-09T07:54:07.260Z,4.63
2018-02-09T07:56:34.887Z,5.27
2018-02-09T07:59:02.451Z,4.73
2018-02-09T08:01:30.018Z,7.47
2018-02-09T08:03:57.663Z,6.00
2018-02-09T08:06:25.336Z,6.07
2018-02-09T08:08:52.917Z,5.57
2018-02-09T08:11:20.534Z,5.97
2018-02-09T08:13:48.157Z,8.00
2018-02-09T08:16:15.721Z,5.40
2018-02-09T08:18:43.377Z,6.10
2018-02-09T08:21:11.380Z,5.50
2018-02-09T08:23:39.022Z,8.07
2018-02-09T08:26:06.680Z,6.03
2018-02-09T08:28:34.248Z,4.90
2018-02-09T08:31:01.896Z,9.90
2018-02-09T08:33:29.657Z,6.10
2018-02-09T08:35:57.233Z,9.30
2018-02-09T08:38:24.874Z,7.60
2018-02-09T08:40:52.490Z,5.00
2018-02-09T08:43:20.057Z,5.33
2018-02-09T08:45:47.993Z,6.10
2018-02-09T08:48:15.888Z,11.17
2018-02-09T08:50:43.464Z,9.17
2018-02-09T08:53:11.038Z,6.53
2018-02-09T08:55:38.841Z,5.20
2018-02-09T08:58:06.442Z,4.20
2018-02-09T09:00:34.008Z,4.90
2018-02-09T09:03:01.658Z,4.40
2018-02-09T09:05:29.294Z,6.40
2018-02-09T09:07:56.880Z,3.53
2018-02-09T09:10:24.512Z,5.57
2018-02-09T09:12:52.108Z,4.67
2018-02-09T09:15:19.674Z,4.37
2018-02-09T09:17:47.289Z,4.37
2018-02-09T09:20:14.868Z,3.80
2018-02-09T09:22:42.431Z,3.63
2018-02-09T09:25:10.065Z,4.47
2018-02-09T09:27:37.637Z,5.07
2018-02-09T09:30:05.256Z,6.20
2018-02-09T09:32:32.883Z,4.13
2018-02-09T09:35:00.486Z,20.23
2018-02-09T09:37:28.901Z,10.17
2018-02-09T09:39:56.532Z,2.47
2018-02-09T09:42:24.125Z,3.33
2018-02-09T09:44:51.738Z,2.37
2018-02-09T09:47:19.676Z,2.53
2018-02-09T09:49:47.265Z,3.07
2018-02-09T09:52:14.909Z,2.50
2018-02-09T09:54:42.552Z,3.00
2018-02-09T09:57:10.207Z,3.37
2018-02-09T09:59:37.806Z,7.13
2018-02-09T10:02:05.487Z,6.50
2018-02-09T10:04:33.078Z,5.57
2018-02-09T10:07:00.714Z,6.10
2018-02-09T10:09:28.353Z,3.60
2018-02-09T10:11:55.942Z,3.27
2018-02-09T10:14:24.060Z,2.90
2018-02-09T10:16:51.750Z,3.67
2018-02-09T10:19:19.321Z,3.40
2018-02-09T10:21:46.899Z,4.17
2018-02-09T10:24:14.591Z,3.93
2018-02-09T10:26:42.229Z,3.07
2018-02-09T10:29:09.813Z,4.30
2018-02-09T10:31:37.437Z,3.27
2018-02-09T10:34:05.011Z,3.80
2018-02-09T10:36:32.615Z,3.63
2018-02-09T10:39:00.281Z,4.13
2018-02-09T10:41:27.927Z,2.57
2018-02-09T10:43:55.531Z,3.70
2018-02-09T10:46:23.161Z,3.87
2018-02-09T10:48:50.802Z,6.87
2018-02-09T10:51:18.369Z,7.90
2018-02-09T10:53:46.219Z,3.90
2018-02-09T10:56:13.859Z,5.67
2018-02-09T10:58:41.566Z,4.20
2018-02-09T11:01:09.240Z,5.70
2018-02-09T11:03:36.804Z,3.77
2018-02-09T11:06:04.403Z,4.47
2018-02-09T11:08:32.069Z,4.57
2018-02-09T11:10:59.729Z,4.27
2018-02-09T11:13:32.951Z,4.47
2018-02-09T11:16:00.527Z,4.13
2018-02-09T11:18:28.107Z,4.87
2018-02-09T11:20:55.790Z,3.80
2018-02-09T11:23:23.375Z,5.17
2018-02-09T11:25:50.936Z,14.30
2018-02-09T11:28:18.557Z,3.33
2018-02-09T11:30:46.209Z,4.50
2018-02-09T11:33:13.813Z,5.70
2018-02-09T11:35:41.442Z,4.20
2018-02-09T11:38:09.091Z,2.40
2018-02-09T11:40:36.650Z,15.60
2018-02-09T11:43:04.293Z,33.40
2018-02-09T11:45:31.878Z,4.93
2018-02-09T11:47:59.476Z,4.87
2018-02-09T11:50:27.126Z,3.23
2018-02-09T11:52:55.447Z,3.63
2018-02-09T11:55:23.086Z,3.40
2018-02-09T11:57:50.917Z,5.03
2018-02-09T12:00:18.577Z,4.13
2018-02-09T12:02:46.153Z,6.10
2018-02-09T12:05:13.779Z,2.33
2018-02-09T12:07:41.414Z,2.63
2018-02-09T12:10:08.990Z,4.80
2018-02-09T12:12:36.601Z,5.30
2018-02-09T12:15:04.229Z,7.40
2018-02-09T12:17:31.798Z,4.07
2018-02-09T12:19:59.527Z,5.00
2018-02-09T12:22:27.951Z,3.20
2018-02-09T12:24:55.600Z,5.87
2018-02-09T12:27:25.957Z,5.00
2018-02-09T12:29:53.518Z,2.90
2018-02-09T12:32:21.108Z,3.93
2018-02-09T12:34:48.754Z,4.70
2018-02-09T12:37:16.394Z,3.70
2018-02-09T12:39:43.966Z,1.83
2018-02-09T12:42:11.659Z,4.13
2018-02-09T12:44:39.231Z,4.70
2018-02-09T12:47:06.812Z,2.73
2018-02-09T12:49:34.430Z,21.77
2018-02-09T12:52:02.016Z,2.20
2018-02-09T12:54:29.588Z,3.37
2018-02-09T12:56:57.266Z,2.87
2018-02-09T12:59:24.841Z,3.80
2018-02-09T13:01:52.494Z,4.70
2018-02-09T13:04:20.434Z,3.20
2018-02-09T13:06:48.002Z,1.97
2018-02-09T13:09:15.651Z,6.47
2018-02-09T13:11:43.256Z,2.93
2018-02-09T13:14:10.894Z,2.60
2018-02-09T13:16:38.472Z,2.53
2018-02-09T13:19:06.117Z,7.10
2018-02-09T13:21:33.749Z,6.37
2018-02-09T13:24:13.210Z,4.43
2018-02-09T13:26:40.793Z,5.97
2018-02-09T13:29:08.387Z,5.80
2018-02-09T13:31:36.013Z,2.80
2018-02-09T13:34:03.607Z,3.30
2018-02-09T13:36:42.947Z,3.20
2018-02-09T13:39:10.553Z,4.20
2018-02-09T13:41:38.267Z,2.53
2018-02-09T13:44:05.874Z,3.07
2018-02-09T13:46:33.483Z,2.67
2018-02-09T13:49:01.049Z,3.17
2018-02-09T13:51:28.881Z,2.50
2018-02-09T13:53:56.502Z,3.73
2018-02-09T13:56:24.097Z,4.43
2018-02-09T13:58:52.623Z,2.93
2018-02-09T14:01:20.201Z,4.33
2018-02-09T14:03:47.885Z,3.63
2018-02-09T14:06:15.650Z,2.60
2018-02-09T14:08:43.239Z,4.00
2018-02-09T14:11:10.805Z,2.50
2018-02-09T14:13:38.432Z,3.80
2018-02-09T14:16:06.018Z,2.53
2018-02-09T14:18:33.711Z,4.87
2018-02-09T14:21:01.475Z,3.90
2018-02-09T14:23:29.042Z,4.47
2018-02-09T14:25:58.957Z,4.33
2018-02-09T14:28:26.619Z,6.73
2018-02-09T14:30:54.216Z,4.27
2018-02-09T14:33:21.773Z,4.00
2018-02-09T14:35:49.450Z,3.50
2018-02-09T14:38:17.029Z,9.53
2018-02-09T14:40:44.829Z,4.20
2018-02-09T14:43:12.504Z,7.63
2018-02-09T14:45:40.672Z,9.20
2018-02-09T14:48:08.248Z,5.90
2018-02-09T14:50:35.951Z,6.60
2018-02-09T14:53:03.613Z,4.90
2018-02-09T14:55:31.185Z,4.63
2018-02-09T14:57:59.058Z,5.90
2018-02-09T15:00:27.551Z,4.77
2018-02-09T15:02:55.135Z,4.03
2018-02-09T15:05:23.226Z,6.90
2018-02-09T15:07:50.860Z,5.53
2018-02-09T15:10:18.437Z,6.13
2018-02-09T15:12:46.122Z,5.30
2018-02-09T15:15:13.698Z,4.30
2018-02-09T15:17:41.281Z,11.63
2018-02-09T15:20:08.916Z,6.73
2018-02-09T15:22:36.497Z,5.30
2018-02-09T15:25:04.059Z,4.63
2018-02-09T15:27:31.707Z,6.33
2018-02-09T15:29:59.282Z,7.30
2018-02-09T15:32:26.920Z,6.30
2018-02-09T15:34:55.300Z,7.37
2018-02-09T15:37:22.864Z,6.30
2018-02-09T15:39:50.440Z,5.27
2018-02-09T15:42:18.081Z,7.27
2018-02-09T15:44:45.657Z,5.13
2018-02-09T15:47:13.313Z,11.20
2018-02-09T15:49:40.965Z,7.67
2018-02-09T15:52:08.603Z,6.67
2018-02-09T15:54:36.185Z,7.03
2018-02-09T15:57:03.838Z,5.77
2018-02-09T15:59:31.416Z,4.93
2018-02-09T16:01:59.009Z,5.40
2018-02-09T16:04:26.815Z,6.97
2018-02-09T16:06:54.473Z,5.77
2018-02-09T16:09:22.055Z,7.90
2018-02-09T16:11:49.985Z,5.63
2018-02-09T16:14:17.889Z,8.40
2018-02-09T16:16:45.451Z,20.97
2018-02-09T16:19:13.092Z,16.67
2018-02-09T16:21:40.669Z,20.37
2018-02-09T16:24:08.311Z,30.43
2018-02-09T16:26:35.934Z,22.03
2018-02-09T16:29:03.526Z,25.93
2018-02-09T16:31:31.123Z,50.03
2018-02-09T16:33:58.745Z,19.60
2018-02-09T16:36:26.547Z,13.13
2018-02-09T16:38:54.125Z,23.37
2018-02-09T16:41:21.785Z,24.40
2018-02-09T16:43:49.506Z,15.33
2018-02-09T16:46:17.104Z,13.53
2018-02-09T16:48:44.818Z,13.50
2018-02-09T16:51:12.413Z,14.10
2018-02-09T16:53:39.990Z,13.00
2018-02-09T16:56:07.627Z,24.23
2018-02-09T16:58:35.221Z,16.77
2018-02-09T17:01:02.850Z,9.83
2018-02-09T17:03:30.485Z,10.53
2018-02-09T17:05:58.063Z,10.43
2018-02-09T17:08:25.764Z,19.90
2018-02-09T17:10:53.389Z,56.40
2018-02-09T17:13:20.974Z,75.33
2018-02-09T17:15:48.569Z,45.13
2018-02-09T17:18:16.238Z,45.83
2018-02-09T17:20:43.833Z,47.53
2018-02-09T17:23:11.412Z,16.23
2018-02-09T17:25:39.046Z,20.63
2018-02-09T17:28:06.766Z,8.47
2018-02-09T17:30:34.353Z,8.00
2018-02-09T17:33:02.584Z,7.00
2018-02-09T17:35:30.147Z,9.03
2018-02-09T17:37:57.788Z,6.83
2018-02-09T17:40:25.477Z,10.83
2018-02-09T17:42:53.089Z,10.60
2018-02-09T17:45:20.675Z,7.87
2018-02-09T17:47:48.373Z,9.97
2018-02-09T17:50:16.491Z,9.27
2018-02-09T17:52:44.175Z,9.73
2018-02-09T17:55:11.787Z,7.37
2018-02-09T17:57:39.421Z,11.83
2018-02-09T18:00:07.009Z,10.70
2018-02-09T18:02:34.840Z,7.77
2018-02-09T18:05:02.432Z,10.77
2018-02-09T18:07:30.065Z,11.73
2018-02-09T18:09:57.827Z,13.67
2018-02-09T18:12:25.412Z,14.20
2018-02-09T18:14:52.985Z,18.63
2018-02-09T18:17:20.689Z,16.40
2018-02-09T18:19:48.280Z,15.30
2018-02-09T18:22:15.856Z,22.93
2018-02-09T18:24:43.497Z,19.90
2018-02-09T18:27:11.071Z,20.43
2018-02-09T18:29:38.702Z,17.83
2018-02-09T18:32:06.361Z,16.23
2018-02-09T18:34:35.206Z,17.73
2018-02-09T18:37:02.796Z,14.07
2018-02-09T18:39:30.448Z,11.73
2018-02-09T18:41:58.660Z,13.23
2018-02-09T18:44:26.254Z,19.17
2018-02-09T18:46:53.936Z,12.77
2018-02-09T18:49:21.505Z,14.03
2018-02-09T18:51:49.080Z,12.83
2018-02-09T18:54:16.778Z,10.40
2018-02-09T18:56:44.360Z,10.93
2018-02-09T18:59:11.938Z,10.27
2018-02-09T19:01:39.601Z,11.57
2018-02-09T19:04:07.174Z,9.07
2018-02-09T19:06:34.835Z,9.63
2018-02-09T19:09:02.699Z,8.77
2018-02-09T19:11:30.335Z,9.53
2018-02-09T19:13:57.933Z,19.33
2018-02-09T19:16:25.573Z,14.00
2018-02-09T19:18:53.144Z,12.20
2018-02-09T19:21:20.725Z,14.07
2018-02-09T19:23:48.355Z,15.90
2018-02-09T19:26:16.545Z,13.40
2018-02-09T19:28:44.120Z,13.90
2018-02-09T19:31:11.831Z,11.50
2018-02-09T19:33:39.473Z,14.80
2018-02-09T19:36:07.040Z,16.47
2018-02-09T19:38:34.676Z,15.70
2018-02-09T19:41:02.257Z,16.23
2018-02-09T19:43:29.850Z,16.20
2018-02-09T19:45:57.471Z,15.43
2018-02-09T19:48:25.129Z,13.07
2018-02-09T19:50:52.712Z,13.13
2018-02-09T19:53:21.285Z,11.87
2018-02-09T19:55:48.861Z,10.73
2018-02-09T19:58:16.433Z,10.87
2018-02-09T20:00:44.027Z,9.47
2018-02-09T20:03:11.603Z,10.00
2018-02-09T20:05:39.178Z,12.33
2018-02-09T20:08:06.804Z,12.70
2018-02-09T20:10:34.370Z,13.37
2018-02-09T20:13:02.077Z,10.30
2018-02-09T20:15:29.723Z,9.20
2018-02-09T20:17:57.321Z,9.80
2018-02-09T20:20:24.890Z,10.20
2018-02-09T20:22:52.581Z,10.77
2018-02-09T20:25:20.184Z,9.73
2018-02-09T20:27:47.751Z,14.57
2018-02-09T20:30:15.759Z,16.47
2018-02-09T20:32:43.340Z,15.83
2018-02-09T20:35:10.897Z,12.13
2018-02-09T20:37:38.531Z,10.70
2018-02-09T20:40:06.101Z,11.67
2018-02-09T20:42:33.804Z,11.53
2018-02-09T20:45:01.391Z,10.80
2018-02-09T20:47:29.033Z,10.97
2018-02-09T20:49:56.665Z,12.43
2018-02-09T20:52:24.324Z,11.77
2018-02-09T20:54:51.913Z,12.20
2018-02-09T20:57:19.491Z,11.33
2018-02-09T20:59:49.155Z,11.20
2018-02-09T21:02:16.735Z,10.37
2018-02-09T21:04:44.323Z,12.30
2018-02-09T21:07:12.245Z,19.90
2018-02-09T21:09:39.833Z,20.17
2018-02-09T21:12:07.396Z,20.07
2018-02-09T21:14:35.193Z,19.20
2018-02-09T21:17:02.861Z,24.07
2018-02-09T21:19:30.437Z,18.33
2018-02-09T21:21:58.101Z,18.83
2018-02-09T21:24:25.731Z,17.03
2018-02-09T21:26:53.300Z,15.53
2018-02-09T21:29:21.282Z,15.00
2018-02-09T21:31:48.879Z,16.30
2018-02-09T21:34:16.453Z,17.07
2018-02-09T21:36:44.199Z,16.87
2018-02-09T21:39:11.768Z,17.73
2018-02-09T21:41:39.356Z,19.73
2018-02-09T21:44:07.191Z,22.43
2018-02-09T21:46:34.842Z,24.00
2018-02-09T21:49:02.481Z,20.77
2018-02-09T21:51:30.105Z,20.80
2018-02-09T21:53:57.820Z,21.43
2018-02-09T21:56:25.395Z,20.57
2018-02-09T21:58:53.051Z,19.03
2018-02-09T22:01:21.261Z,19.20
2018-02-09T22:03:48.830Z,19.50
2018-02-09T22:06:16.451Z,18.90
2018-02-09T22:08:44.054Z,19.63
2018-02-09T22:11:11.621Z,16.97
2018-02-09T22:13:39.260Z,16.50
2018-02-09T22:16:07.252Z,18.27
2018-02-09T22:18:34.840Z,20.47
2018-02-09T22:21:02.521Z,21.23
2018-02-09T22:23:30.118Z,23.67
2018-02-09T22:25:58.106Z,22.60
2018-02-09T22:28:26.604Z,23.70
2018-02-09T22:30:54.205Z,23.93
2018-02-09T22:33:21.781Z,21.10
2018-02-09T22:35:49.416Z,22.07
2018-02-09T22:38:17.066Z,25.90
2018-02-09T22:40:44.638Z,23.30
2018-02-09T22:43:13.002Z,23.40
2018-02-09T22:45:40.582Z,26.67
2018-02-09T22:48:08.682Z,26.47
2018-02-09T22:50:36.397Z,23.47
2018-02-09T22:53:03.983Z,24.37
2018-02-09T22:55:31.796Z,25.27
2018-02-09T22:57:59.467Z,25.47
2018-02-09T23:00:27.060Z,22.10
2018-02-09T23:02:54.666Z,21.63
2018-02-09T23:05:22.364Z,20.37
2018-02-09T23:07:49.945Z,21.33
2018-02-09T23:10:17.543Z,19.93
2018-02-09T23:12:45.182Z,16.50
2018-02-09T23:15:13.148Z,17.53
2018-02-09T23:17:40.840Z,16.73
2018-02-09T23:20:08.489Z,18.60
2018-02-09T23:22:36.137Z,16.27
2018-02-09T23:25:03.739Z,14.03
2018-02-09T23:27:31.673Z,14.73
2018-02-09T23:29:59.261Z,13.27
2018-02-09T23:32:26.885Z,12.97
2018-02-09T23:34:54.529Z,12.47
2018-02-09T23:37:22.109Z,13.93
2018-02-09T23:39:49.689Z,13.23
2018-02-09T23:42:17.373Z,11.63
2018-02-09T23:44:44.941Z,11.77
2018-02-09T23:47:12.494Z,11.10
2018-02-09T23:49:40.189Z,11.60
2018-02-09T23:52:07.829Z,12.83
2018-02-09T23:54:35.399Z,11.43
2018-02-09T23:57:03.102Z,14.97
2018-02-09T23:59:30.681Z,10.20
